Kezdőlap
METAR-TAF:

METAR-TAF

Repülőterek :

Litchfield Municipal Airport

Litchfield, Minnesota, Amerikai Egyesült Államok

földrajzi szélesség: 45-05-50N, földrajzi hosszúság: 094-30-26W, magasság: 348 m

Jelenlegi meteorológiai megfigyelések

A jelentés 2 órával és 59 perccel ezelõtt készült, 10:42 UTC
Dél-délkeleti szél 4 kt
Hőmérséklet 24°C
Páratartalom 100%
Légköri nyomás 1015 hPa
Látótávolság: 16.1 km
Szórványos felhőzet 7000 lábon

METAR: KLJF 281042Z AUTO 16004KT 10SM SCT070 24/24 A2996 RMK AO2 LTG DSNT W THRU

Idő: 08:41 (13:41 UTC)


TAF: hiányzik

Meteorológiai megfigyelések és előrejelzések több, mint 4000 repülőtéren (METAR és TAF jelentéseket).

A térképen piros és sárga pontok jelzik az elérhető meteorológiai állomásokat.

Mozgassa az egeret a pont fölött, hogy megjelenjen az állomás neve.

Azután kattintson az időjárási megfigyelések és előrejelzések megtekintéséhez.

A térkép megváltoztatása: kattintson a fekete keresztel jelölt zöld gombra ráközelítéshez, a vonallal jelölt zöld gombra távolításhoz, vagy a zöld nyilakra a szomszédos térképek eléréséhez.


METAR-TAF: